createdAt,value
2018-07-21T00:00:41.544Z,90.98
2018-07-21T00:03:32.151Z,91.57
2018-07-21T00:06:01.988Z,91.94
2018-07-21T00:08:35.976Z,91.79
2018-07-21T00:11:05.809Z,91.87
2018-07-21T00:13:35.952Z,91.88
2018-07-21T00:16:05.787Z,92.68
2018-07-21T00:21:35.301Z,92.41
2018-07-21T00:26:58.547Z,93.86
2018-07-21T00:29:28.479Z,93.77
2018-07-21T00:31:58.690Z,93.96
2018-07-21T00:34:32.623Z,94.71
2018-07-21T00:37:10.603Z,94.14
2018-07-21T00:39:40.542Z,94.20
2018-07-21T00:42:10.390Z,95.17
2018-07-21T00:44:40.305Z,95.51
2018-07-21T00:47:29.497Z,95.10
2018-07-21T00:49:59.385Z,95.66
2018-07-21T00:52:29.508Z,95.22
2018-07-21T00:54:59.371Z,95.53
2018-07-21T00:57:29.189Z,96.03
2018-07-21T00:59:59.038Z,95.69
2018-07-21T01:02:28.949Z,95.68
2018-07-21T01:04:58.784Z,96.00
2018-07-21T01:07:28.622Z,96.06
2018-07-21T01:09:58.406Z,96.45
2018-07-21T01:12:28.273Z,96.46
2018-07-21T01:14:58.206Z,95.35
2018-07-21T01:17:35.646Z,93.77
2018-07-21T01:20:06.654Z,93.57
2018-07-21T01:22:36.576Z,92.65
2018-07-21T01:25:07.341Z,93.63
2018-07-21T01:27:38.064Z,93.67
2018-07-21T01:30:08.117Z,93.98
2018-07-21T01:32:37.946Z,94.14
2018-07-21T01:35:07.873Z,94.47
2018-07-21T01:37:37.820Z,94.09
2018-07-21T01:40:07.675Z,94.46
2018-07-21T01:42:38.086Z,94.42
2018-07-21T01:45:08.019Z,93.72
2018-07-21T01:47:38.393Z,93.81
2018-07-21T01:50:08.283Z,93.41
2018-07-21T01:52:38.874Z,94.50
2018-07-21T01:55:08.792Z,94.69
2018-07-21T01:57:39.588Z,94.83
2018-07-21T02:00:09.478Z,94.84
2018-07-21T02:02:39.322Z,95.38
2018-07-21T02:05:09.522Z,94.83
2018-07-21T02:07:40.082Z,95.72
2018-07-21T02:10:09.923Z,95.70
2018-07-21T02:12:39.856Z,95.35
2018-07-21T02:15:09.727Z,94.94
2018-07-21T02:17:39.691Z,94.72
2018-07-21T02:20:09.566Z,94.53
2018-07-21T02:22:40.137Z,93.91
2018-07-21T02:25:10.575Z,94.46
2018-07-21T02:27:40.445Z,94.66
2018-07-21T02:30:10.336Z,93.94
2018-07-21T02:32:40.204Z,94.38
2018-07-21T02:38:14.313Z,93.77
2018-07-21T02:40:44.263Z,94.49
2018-07-21T02:43:14.135Z,94.07
2018-07-21T02:45:44.042Z,94.53
2018-07-21T02:48:14.180Z,95.15
2018-07-21T02:50:44.022Z,94.91
2018-07-21T02:53:13.845Z,94.39
2018-07-21T02:55:43.668Z,94.11
2018-07-21T02:58:13.575Z,94.39
2018-07-21T03:00:43.411Z,94.56
2018-07-21T03:03:13.250Z,95.02
2018-07-21T03:05:43.084Z,94.22
2018-07-21T03:08:12.898Z,94.40
2018-07-21T03:10:42.724Z,94.51
2018-07-21T03:13:12.557Z,95.24
2018-07-21T03:15:48.478Z,94.78
2018-07-21T03:18:18.344Z,94.73
2018-07-21T03:23:59.960Z,95.45
2018-07-21T03:26:30.173Z,95.36
2018-07-21T03:29:00.059Z,94.33
2018-07-21T03:31:30.226Z,93.95
2018-07-21T03:34:00.072Z,93.87
2018-07-21T03:39:34.996Z,93.08
2018-07-21T03:42:08.855Z,93.32
2018-07-21T03:44:39.872Z,93.03
2018-07-21T03:47:10.539Z,92.36
2018-07-21T03:49:41.606Z,91.99
2018-07-21T03:52:11.752Z,91.74
2018-07-21T03:57:41.066Z,92.41
2018-07-21T04:03:04.206Z,92.29
2018-07-21T04:05:34.156Z,91.91
2018-07-21T04:08:03.987Z,91.77
2018-07-21T04:10:33.876Z,91.20
2018-07-21T04:13:03.695Z,91.15
2018-07-21T04:15:33.567Z,90.12
2018-07-21T04:18:03.457Z,89.62
2018-07-21T04:20:33.272Z,88.92
2018-07-21T04:23:03.137Z,87.66
2018-07-21T04:25:33.174Z,87.03
2018-07-21T04:28:03.011Z,86.86
2018-07-21T04:30:32.931Z,87.01
2018-07-21T04:33:02.784Z,86.30
2018-07-21T04:35:32.682Z,85.64
2018-07-21T04:38:02.526Z,84.16
2018-07-21T04:40:32.354Z,82.94
2018-07-21T04:43:02.179Z,81.62
2018-07-21T04:45:31.997Z,81.23
2018-07-21T04:48:01.884Z,77.29
2018-07-21T04:50:31.705Z,76.51
2018-07-21T04:53:01.543Z,74.49
2018-07-21T04:55:31.410Z,72.94
2018-07-21T04:58:01.297Z,70.90
2018-07-21T05:00:31.128Z,70.90
2018-07-21T05:06:21.051Z,67.77
2018-07-21T05:12:00.647Z,64.45
2018-07-21T05:14:31.123Z,63.16
2018-07-21T05:17:01.842Z,61.18
2018-07-21T05:19:32.302Z,57.32
2018-07-21T05:22:02.786Z,56.26
2018-07-21T05:24:33.317Z,54.42
2018-07-21T05:27:03.797Z,50.61
2018-07-21T05:29:34.352Z,48.11
2018-07-21T05:32:04.802Z,43.71
2018-07-21T05:34:35.349Z,39.69
2018-07-21T05:37:05.776Z,36.79
2018-07-21T05:39:36.257Z,35.68
2018-07-21T05:42:06.693Z,32.63
2018-07-21T05:44:37.126Z,31.30
2018-07-21T05:47:07.583Z,28.80
2018-07-21T05:49:44.027Z,27.75
2018-07-21T05:52:14.247Z,26.46
2018-07-21T05:54:44.921Z,26.13
2018-07-21T05:57:15.053Z,24.85
2018-07-21T05:59:47.175Z,25.38
2018-07-21T06:02:17.392Z,24.46
2018-07-21T06:04:48.405Z,23.98
2018-07-21T06:07:18.898Z,22.62
2018-07-21T06:09:49.042Z,22.02
2018-07-21T06:12:19.222Z,21.70
2018-07-21T06:14:49.373Z,23.12
2018-07-21T06:17:19.548Z,22.85
2018-07-21T06:19:49.710Z,23.14
2018-07-21T06:22:20.218Z,22.55
2018-07-21T06:24:50.425Z,22.84
2018-07-21T06:27:20.637Z,22.43
2018-07-21T06:29:50.811Z,23.04
2018-07-21T06:32:20.994Z,22.38
2018-07-21T06:34:51.160Z,22.39
2018-07-21T06:37:21.416Z,22.92
2018-07-21T06:39:51.586Z,21.35
2018-07-21T06:42:21.817Z,20.16
2018-07-21T06:44:51.968Z,21.05
2018-07-21T06:47:22.451Z,20.39
2018-07-21T06:49:52.650Z,20.88
2018-07-21T06:52:22.874Z,18.96
2018-07-21T06:54:53.098Z,18.83
2018-07-21T06:57:23.273Z,18.19
2018-07-21T06:59:53.519Z,17.46
2018-07-21T07:02:23.743Z,17.86
2018-07-21T07:04:53.943Z,17.37
2018-07-21T07:07:26.221Z,15.70
2018-07-21T07:09:56.367Z,16.42
2018-07-21T07:12:26.554Z,15.00
2018-07-21T07:14:56.670Z,15.45
2018-07-21T07:17:26.786Z,15.49
2018-07-21T07:19:56.987Z,15.75
2018-07-21T07:22:27.200Z,15.52
2018-07-21T07:24:57.462Z,15.70
2018-07-21T07:27:27.755Z,15.99
2018-07-21T07:29:58.197Z,15.62
2018-07-21T07:32:28.378Z,14.65
2018-07-21T07:34:58.546Z,15.71
2018-07-21T07:37:28.986Z,16.59
2018-07-21T07:39:59.136Z,16.89
2018-07-21T07:42:29.590Z,15.46
2018-07-21T07:44:59.733Z,15.17
2018-07-21T07:47:30.230Z,15.78
2018-07-21T07:50:00.371Z,14.62
2018-07-21T07:52:30.458Z,15.38
2018-07-21T07:55:00.634Z,14.71
2018-07-21T07:57:30.757Z,15.38
2018-07-21T08:00:00.967Z,15.43
2018-07-21T08:02:31.112Z,15.87
2018-07-21T08:05:01.295Z,14.24
2018-07-21T08:07:31.477Z,14.73
2018-07-21T08:10:01.647Z,14.60
2018-07-21T08:12:31.817Z,14.13
2018-07-21T08:15:02.231Z,13.26
2018-07-21T08:17:32.423Z,12.13
2018-07-21T08:20:02.835Z,13.10
2018-07-21T08:22:33.007Z,13.28
2018-07-21T08:25:03.155Z,13.97
2018-07-21T08:27:33.453Z,14.51
2018-07-21T08:30:03.744Z,14.55
2018-07-21T08:32:34.202Z,14.12
2018-07-21T08:35:04.629Z,14.62
2018-07-21T08:37:35.529Z,14.16
2018-07-21T08:40:06.847Z,14.65
2018-07-21T08:42:37.030Z,14.82
2018-07-21T08:45:08.030Z,14.11
2018-07-21T08:47:38.186Z,13.32
2018-07-21T08:50:08.556Z,13.47
2018-07-21T08:52:38.698Z,12.48
2018-07-21T08:55:08.902Z,12.85
2018-07-21T08:57:39.865Z,12.66
2018-07-21T09:00:10.105Z,13.35
2018-07-21T09:02:40.312Z,13.40
2018-07-21T09:05:10.498Z,13.32
2018-07-21T09:07:40.705Z,13.49
2018-07-21T09:10:10.922Z,13.68
2018-07-21T09:12:41.088Z,14.18
2018-07-21T09:15:11.364Z,14.75
2018-07-21T09:17:41.542Z,16.80
2018-07-21T09:20:11.687Z,16.71
2018-07-21T09:22:41.856Z,16.62
2018-07-21T09:25:12.039Z,15.93
2018-07-21T09:27:42.301Z,17.26
2018-07-21T09:30:12.463Z,18.63
2018-07-21T09:32:42.654Z,18.76
2018-07-21T09:35:12.776Z,20.89
2018-07-21T09:37:42.978Z,21.51
2018-07-21T09:40:13.227Z,22.46
2018-07-21T09:42:43.539Z,22.62
2018-07-21T09:45:13.729Z,24.57
2018-07-21T09:47:43.858Z,23.62
2018-07-21T09:50:14.358Z,23.36
2018-07-21T09:52:44.789Z,22.42
2018-07-21T09:55:15.261Z,24.81
2018-07-21T09:57:45.655Z,24.37
2018-07-21T10:00:21.339Z,25.35
2018-07-21T10:02:51.778Z,23.71
2018-07-21T10:05:22.600Z,25.40
2018-07-21T10:07:53.102Z,25.33
2018-07-21T10:10:23.574Z,26.11
2018-07-21T10:12:54.043Z,25.12
2018-07-21T10:15:24.568Z,24.72
2018-07-21T10:17:54.982Z,25.57
2018-07-21T10:20:25.468Z,26.98
2018-07-21T10:22:55.878Z,26.84
2018-07-21T10:25:31.458Z,26.43
2018-07-21T10:28:07.283Z,27.10
2018-07-21T10:30:37.771Z,26.86
2018-07-21T10:33:08.228Z,26.93
2018-07-21T10:35:38.703Z,26.22
2018-07-21T10:38:09.271Z,28.04
2018-07-21T10:40:39.975Z,25.98
2018-07-21T10:43:10.386Z,25.26
2018-07-21T10:45:40.902Z,24.80
2018-07-21T10:48:11.365Z,26.03
2018-07-21T10:50:41.909Z,26.14
2018-07-21T10:53:12.396Z,25.67
2018-07-21T10:55:42.862Z,26.39
2018-07-21T10:58:13.306Z,24.83
2018-07-21T11:00:43.821Z,28.16
2018-07-21T11:03:14.230Z,27.19
2018-07-21T11:05:44.735Z,28.99
2018-07-21T11:08:15.236Z,28.67
2018-07-21T11:10:45.780Z,28.10
2018-07-21T11:13:16.314Z,27.21
2018-07-21T11:15:46.830Z,27.14
2018-07-21T11:18:17.303Z,29.62
2018-07-21T11:20:47.831Z,27.52
2018-07-21T11:23:18.340Z,27.89
2018-07-21T11:25:48.844Z,29.79
2018-07-21T11:28:19.269Z,29.73
2018-07-21T11:30:49.817Z,28.38
2018-07-21T11:33:20.292Z,27.45
2018-07-21T11:35:51.005Z,30.55
2018-07-21T11:38:21.442Z,27.69
2018-07-21T11:40:51.911Z,27.53
2018-07-21T11:43:22.418Z,29.70
2018-07-21T11:45:52.846Z,30.09
2018-07-21T11:48:23.277Z,30.32
2018-07-21T11:50:53.772Z,28.79
2018-07-21T11:53:24.177Z,28.95
2018-07-21T11:55:54.682Z,29.60
2018-07-21T11:58:25.099Z,29.98
2018-07-21T12:00:55.529Z,28.86
2018-07-21T12:03:25.922Z,29.50
2018-07-21T12:05:56.370Z,28.35
2018-07-21T12:08:26.800Z,28.40
2018-07-21T12:10:57.316Z,28.90
2018-07-21T12:13:27.747Z,28.44
2018-07-21T12:15:58.446Z,29.31
2018-07-21T12:18:28.868Z,28.40
2018-07-21T12:20:59.590Z,27.51
2018-07-21T12:23:30.006Z,27.67
2018-07-21T12:26:00.530Z,28.36
2018-07-21T12:28:31.238Z,30.22
2018-07-21T12:31:01.746Z,29.12
2018-07-21T12:33:32.231Z,30.64
2018-07-21T12:36:02.732Z,31.62
2018-07-21T12:38:33.170Z,28.99
2018-07-21T12:41:03.665Z,27.93
2018-07-21T12:43:34.078Z,29.26
2018-07-21T12:46:04.613Z,29.82
2018-07-21T12:48:35.044Z,29.71
2018-07-21T12:51:05.497Z,27.30
2018-07-21T12:53:36.266Z,26.63
2018-07-21T12:56:06.792Z,26.24
2018-07-21T12:58:37.226Z,30.47
2018-07-21T13:01:08.155Z,28.59
2018-07-21T13:03:38.590Z,30.33
2018-07-21T13:06:08.992Z,28.75
2018-07-21T13:08:39.418Z,31.01
2018-07-21T13:11:09.992Z,27.28
2018-07-21T13:13:40.444Z,28.90
2018-07-21T13:16:10.835Z,29.84
2018-07-21T13:18:41.289Z,30.37
2018-07-21T13:21:11.756Z,29.34
2018-07-21T13:23:42.339Z,28.36
2018-07-21T13:26:12.798Z,28.98
2018-07-21T13:28:45.846Z,31.53
2018-07-21T13:31:16.417Z,32.26
2018-07-21T13:33:46.914Z,29.48
2018-07-21T13:36:17.453Z,30.48
2018-07-21T13:38:47.989Z,30.93
2018-07-21T13:41:18.474Z,30.73
2018-07-21T13:43:48.985Z,30.13
2018-07-21T13:46:20.420Z,29.11
2018-07-21T13:48:51.044Z,30.47
2018-07-21T13:51:21.856Z,29.67
2018-07-21T13:53:52.407Z,30.28
2018-07-21T13:56:23.001Z,31.03
2018-07-21T13:58:53.585Z,32.32
2018-07-21T14:01:24.042Z,31.29
2018-07-21T14:03:54.524Z,31.93
2018-07-21T14:06:24.992Z,30.61
2018-07-21T14:08:55.499Z,31.59
2018-07-21T14:11:26.002Z,30.30
2018-07-21T14:13:56.632Z,30.36
2018-07-21T14:16:27.167Z,29.75
2018-07-21T14:18:57.721Z,30.50
2018-07-21T14:21:28.249Z,31.28
2018-07-21T14:23:58.777Z,30.75
2018-07-21T14:26:29.464Z,32.19
2018-07-21T14:28:59.992Z,34.47
2018-07-21T14:31:30.427Z,34.60
2018-07-21T14:34:00.906Z,34.17
2018-07-21T14:36:31.427Z,32.76
2018-07-21T14:39:02.105Z,33.07
2018-07-21T14:41:32.579Z,32.24
2018-07-21T14:44:03.049Z,33.30
2018-07-21T14:46:33.467Z,32.62
2018-07-21T14:49:04.160Z,32.22
2018-07-21T14:51:34.780Z,31.79
2018-07-21T14:54:05.283Z,31.21
2018-07-21T14:56:35.701Z,31.56
2018-07-21T14:59:06.182Z,31.09
2018-07-21T15:01:36.650Z,30.58
2018-07-21T15:04:07.253Z,30.37
2018-07-21T15:06:37.693Z,30.29
2018-07-21T15:09:09.783Z,30.82
2018-07-21T15:11:40.237Z,30.69
2018-07-21T15:14:10.713Z,30.47
2018-07-21T15:16:42.015Z,30.40
2018-07-21T15:19:12.526Z,30.61
2018-07-21T15:21:43.002Z,31.64
2018-07-21T15:24:13.484Z,31.05
2018-07-21T15:26:43.951Z,31.74
2018-07-21T15:29:14.662Z,30.75
2018-07-21T15:32:06.556Z,30.54
2018-07-21T15:34:37.041Z,29.21
2018-07-21T15:37:26.085Z,29.88
2018-07-21T15:40:09.453Z,31.79
2018-07-21T15:42:55.334Z,31.23
2018-07-21T15:45:44.938Z,31.17
2018-07-21T15:51:21.450Z,30.54
2018-07-21T15:53:51.864Z,31.64
2018-07-21T15:56:22.330Z,31.28
2018-07-21T15:58:52.741Z,32.34
2018-07-21T16:01:23.256Z,31.50
2018-07-21T16:03:53.687Z,32.44
2018-07-21T16:06:24.133Z,31.43
2018-07-21T16:08:54.599Z,32.01
2018-07-21T16:11:25.033Z,30.97
2018-07-21T16:13:55.522Z,31.13
2018-07-21T16:16:25.935Z,31.44
2018-07-21T16:18:56.403Z,32.03
2018-07-21T16:21:27.470Z,31.91
2018-07-21T16:23:57.955Z,32.00
2018-07-21T16:26:28.337Z,32.90
2018-07-21T16:28:58.814Z,31.50
2018-07-21T16:31:29.218Z,33.04
2018-07-21T16:33:59.681Z,32.68
2018-07-21T16:36:30.130Z,33.42
2018-07-21T16:39:00.651Z,33.43
2018-07-21T16:41:31.115Z,33.14
2018-07-21T16:44:01.578Z,33.35
2018-07-21T16:46:32.040Z,34.28
2018-07-21T16:49:02.529Z,34.02
2018-07-21T16:51:33.032Z,33.95
2018-07-21T16:54:03.535Z,34.49
2018-07-21T16:56:34.008Z,34.35
2018-07-21T16:59:04.565Z,34.46
2018-07-21T17:01:35.065Z,34.39
2018-07-21T17:04:05.972Z,34.85
2018-07-21T17:06:36.423Z,34.50
2018-07-21T17:09:08.965Z,35.29
2018-07-21T17:11:39.455Z,34.37
2018-07-21T17:14:11.408Z,34.91
2018-07-21T17:16:41.853Z,35.43
2018-07-21T17:19:12.342Z,35.90
2018-07-21T17:21:42.799Z,36.44
2018-07-21T17:24:13.299Z,37.59
2018-07-21T17:26:43.747Z,37.22
2018-07-21T17:29:14.291Z,37.61
2018-07-21T17:31:45.078Z,37.40
2018-07-21T17:34:15.590Z,38.15
2018-07-21T17:36:46.006Z,38.19
2018-07-21T17:39:16.564Z,38.40
2018-07-21T17:41:47.236Z,39.13
2018-07-21T17:44:17.899Z,38.98
2018-07-21T17:46:48.319Z,39.74
2018-07-21T17:49:18.802Z,40.20
2018-07-21T17:51:49.305Z,40.35
2018-07-21T17:54:19.812Z,41.25
2018-07-21T17:56:50.262Z,41.16
2018-07-21T17:59:20.784Z,40.92
2018-07-21T18:01:51.262Z,42.44
2018-07-21T18:04:21.786Z,41.67
2018-07-21T18:06:52.250Z,41.95
2018-07-21T18:09:22.794Z,42.65
2018-07-21T18:11:53.249Z,43.58
2018-07-21T18:14:23.800Z,43.71
2018-07-21T18:16:54.321Z,43.77
2018-07-21T18:19:24.853Z,44.64
2018-07-21T18:21:57.371Z,44.49
2018-07-21T18:24:27.905Z,45.52
2018-07-21T18:26:58.386Z,46.68
2018-07-21T18:29:28.939Z,46.22
2018-07-21T18:31:59.597Z,47.86
2018-07-21T18:34:30.135Z,48.99
2018-07-21T18:37:00.556Z,50.35
2018-07-21T18:39:31.026Z,50.88
2018-07-21T18:42:01.456Z,51.19
2018-07-21T18:44:31.918Z,52.71
2018-07-21T18:47:02.958Z,52.86
2018-07-21T18:49:33.426Z,53.00
2018-07-21T18:52:05.001Z,54.65
2018-07-21T18:54:35.468Z,55.13
2018-07-21T18:57:06.078Z,54.47
2018-07-21T18:59:36.549Z,54.86
2018-07-21T19:02:07.460Z,56.38
2018-07-21T19:04:38.420Z,56.77
2018-07-21T19:07:08.933Z,57.28
2018-07-21T19:09:39.450Z,56.77
2018-07-21T19:12:15.070Z,56.52
2018-07-21T19:14:45.851Z,57.69
2018-07-21T19:17:16.551Z,57.72
2018-07-21T19:19:51.694Z,57.68
2018-07-21T19:22:21.614Z,59.01
2018-07-21T19:24:52.111Z,60.04
2018-07-21T19:27:27.280Z,61.93
2018-07-21T19:29:57.127Z,61.43
2018-07-21T19:32:32.400Z,59.93
2018-07-21T19:35:02.427Z,62.20
2018-07-21T19:37:37.602Z,63.83
2018-07-21T19:40:07.872Z,64.14
2018-07-21T19:42:38.018Z,64.01
2018-07-21T19:45:07.866Z,63.56
2018-07-21T19:47:37.868Z,63.75
2018-07-21T19:50:17.378Z,64.76
2018-07-21T19:52:47.270Z,65.19
2018-07-21T19:55:21.266Z,65.53
2018-07-21T19:57:51.184Z,65.44
2018-07-21T20:00:21.101Z,65.29
2018-07-21T20:02:51.062Z,65.05
2018-07-21T20:05:20.942Z,65.69
2018-07-21T20:10:19.430Z,66.90
2018-07-21T20:12:49.329Z,66.58
2018-07-21T20:15:19.207Z,67.29
2018-07-21T20:17:49.091Z,68.20
2018-07-21T20:20:19.057Z,67.87
2018-07-21T20:22:49.073Z,69.04
2018-07-21T20:25:18.997Z,69.72
2018-07-21T20:27:48.929Z,70.36
2018-07-21T20:30:18.821Z,69.48
2018-07-21T20:32:48.876Z,69.82
2018-07-21T20:35:18.842Z,69.69
2018-07-21T20:37:48.808Z,70.49
2018-07-21T20:40:18.737Z,70.84
2018-07-21T20:42:48.665Z,71.01
2018-07-21T20:45:18.663Z,70.73
2018-07-21T20:47:48.598Z,70.62
2018-07-21T20:50:18.566Z,70.84
2018-07-21T20:52:48.417Z,70.87
2018-07-21T20:55:18.283Z,70.57
2018-07-21T20:57:48.161Z,70.80
2018-07-21T21:00:18.113Z,70.84
2018-07-21T21:02:48.210Z,70.99
2018-07-21T21:05:18.093Z,71.30
2018-07-21T21:07:47.979Z,70.98
2018-07-21T21:10:17.873Z,70.92
2018-07-21T21:12:47.849Z,72.46
2018-07-21T21:15:17.799Z,73.28
2018-07-21T21:17:47.698Z,73.87
2018-07-21T21:20:17.547Z,73.94
2018-07-21T21:22:47.487Z,73.97
2018-07-21T21:25:17.580Z,74.01
2018-07-21T21:27:47.465Z,74.08
2018-07-21T21:30:17.346Z,74.48
2018-07-21T21:32:47.263Z,74.44
2018-07-21T21:35:17.156Z,74.74
2018-07-21T21:37:47.020Z,75.61
2018-07-21T21:40:16.901Z,75.38
2018-07-21T21:42:46.790Z,74.94
2018-07-21T21:45:16.701Z,74.24
2018-07-21T21:47:46.542Z,73.89
2018-07-21T21:50:16.419Z,73.61
2018-07-21T21:52:46.295Z,73.63
2018-07-21T21:55:16.159Z,73.73
2018-07-21T21:57:46.114Z,73.51
2018-07-21T22:00:15.990Z,73.33
2018-07-21T22:02:45.900Z,72.81
2018-07-21T22:05:15.745Z,72.67
2018-07-21T22:07:45.594Z,72.72
2018-07-21T22:10:15.522Z,72.92
2018-07-21T22:12:45.616Z,72.35
2018-07-21T22:15:22.645Z,72.08
2018-07-21T22:17:52.647Z,72.06
2018-07-21T22:20:22.888Z,72.58
2018-07-21T22:22:52.740Z,72.29
2018-07-21T22:25:22.620Z,72.68
2018-07-21T22:27:52.565Z,73.06
2018-07-21T22:30:22.528Z,73.22
2018-07-21T22:32:52.534Z,73.42
2018-07-21T22:35:22.406Z,73.46
2018-07-21T22:37:52.367Z,73.96
2018-07-21T22:40:22.278Z,74.40
2018-07-21T22:42:52.189Z,74.56
2018-07-21T22:45:22.103Z,75.08
2018-07-21T22:47:51.995Z,76.00
2018-07-21T22:50:22.034Z,76.53
2018-07-21T22:52:51.921Z,76.81
2018-07-21T22:55:21.789Z,76.68
2018-07-21T22:57:51.637Z,76.18
2018-07-21T23:00:21.548Z,76.05
2018-07-21T23:02:51.441Z,75.29
2018-07-21T23:05:21.321Z,74.84
2018-07-21T23:07:51.305Z,75.11
2018-07-21T23:10:21.178Z,75.15
2018-07-21T23:12:51.098Z,75.13
2018-07-21T23:15:21.149Z,75.62
2018-07-21T23:17:52.284Z,75.60
2018-07-21T23:20:22.203Z,76.22
2018-07-21T23:22:52.071Z,75.60
2018-07-21T23:25:21.934Z,75.27
2018-07-21T23:27:51.790Z,74.52
2018-07-21T23:30:21.720Z,76.00
2018-07-21T23:32:59.258Z,76.62
2018-07-21T23:35:29.130Z,76.27
2018-07-21T23:38:06.819Z,77.08
2018-07-21T23:40:36.699Z,77.67
2018-07-21T23:43:06.785Z,78.08
2018-07-21T23:45:36.676Z,79.00
2018-07-21T23:48:06.537Z,78.67
2018-07-21T23:50:36.404Z,77.47
2018-07-21T23:53:06.273Z,77.35
2018-07-21T23:55:36.205Z,76.87
2018-07-21T23:58:06.721Z,77.73
